createdAt,value
2018-05-04T00:02:05.206Z,6.60
2018-05-04T00:04:35.621Z,6.03
2018-05-04T00:07:05.380Z,6.20
2018-05-04T00:09:35.233Z,5.50
2018-05-04T00:12:04.208Z,6.40
2018-05-04T00:14:33.783Z,5.77
2018-05-04T00:17:03.060Z,6.23
2018-05-04T00:19:32.954Z,5.20
2018-05-04T00:22:03.395Z,6.40
2018-05-04T00:24:34.143Z,6.93
2018-05-04T00:27:04.783Z,5.93
2018-05-04T00:29:34.479Z,6.17
2018-05-04T00:32:04.408Z,5.30
2018-05-04T00:34:34.317Z,5.23
2018-05-04T00:37:04.087Z,4.90
2018-05-04T00:39:33.404Z,5.40
2018-05-04T00:42:02.890Z,4.37
2018-05-04T00:44:32.140Z,5.23
2018-05-04T00:47:01.855Z,5.37
2018-05-04T00:49:31.039Z,4.57
2018-05-04T00:52:01.192Z,6.10
2018-05-04T00:54:30.496Z,6.20
2018-05-04T00:56:59.965Z,6.13
2018-05-04T00:59:29.887Z,7.33
2018-05-04T01:02:00.336Z,6.37
2018-05-04T01:04:30.232Z,6.67
2018-05-04T01:07:03.353Z,6.93
2018-05-04T01:09:33.285Z,6.47
2018-05-04T01:12:02.780Z,5.80
2018-05-04T01:14:32.458Z,5.70
2018-05-04T01:17:01.916Z,5.57
2018-05-04T01:19:33.819Z,6.50
2018-05-04T01:22:04.923Z,5.87
2018-05-04T01:24:34.977Z,5.30
2018-05-04T01:27:05.003Z,6.00
2018-05-04T01:29:36.646Z,5.00
2018-05-04T01:32:06.332Z,5.37
2018-05-04T01:34:37.160Z,5.43
2018-05-04T01:37:07.484Z,5.70
2018-05-04T01:39:37.746Z,5.30
2018-05-04T01:42:07.506Z,5.67
2018-05-04T01:44:37.629Z,5.50
2018-05-04T01:47:07.238Z,5.63
2018-05-04T01:49:37.351Z,5.60
2018-05-04T01:52:07.138Z,5.47
2018-05-04T01:54:36.643Z,5.30
2018-05-04T01:57:06.298Z,4.77
2018-05-04T01:59:36.055Z,5.40
2018-05-04T02:02:05.765Z,5.17
2018-05-04T02:04:38.583Z,5.10
2018-05-04T02:07:08.222Z,5.47
2018-05-04T02:09:37.488Z,5.30
2018-05-04T02:12:07.841Z,4.80
2018-05-04T02:14:37.606Z,5.00
2018-05-04T02:17:07.035Z,5.10
2018-05-04T02:19:36.282Z,4.90
2018-05-04T02:22:07.972Z,4.23
2018-05-04T02:24:38.348Z,5.20
2018-05-04T02:27:08.778Z,5.60
2018-05-04T02:29:38.162Z,5.40
2018-05-04T02:32:10.569Z,4.50
2018-05-04T02:34:39.860Z,5.10
2018-05-04T02:37:09.521Z,5.13
2018-05-04T02:39:39.058Z,5.63
2018-05-04T02:42:10.082Z,5.80
2018-05-04T02:44:39.472Z,5.03
2018-05-04T02:47:09.146Z,5.27
2018-05-04T02:49:38.803Z,6.17
2018-05-04T02:52:08.150Z,6.07
2018-05-04T02:54:38.279Z,5.90
2018-05-04T02:57:08.162Z,5.80
2018-05-04T02:59:37.819Z,5.47
2018-05-04T03:02:08.166Z,4.70
2018-05-04T03:04:37.692Z,4.20
2018-05-04T03:07:07.385Z,5.23
2018-05-04T03:09:37.255Z,5.20
2018-05-04T03:12:07.032Z,4.70
2018-05-04T03:14:36.624Z,8.00
2018-05-04T03:17:06.743Z,6.07
2018-05-04T03:19:36.224Z,5.37
2018-05-04T03:22:06.948Z,5.10
2018-05-04T03:24:37.292Z,5.13
2018-05-04T03:27:06.803Z,5.10
2018-05-04T03:29:36.165Z,4.57
2018-05-04T03:32:05.839Z,5.50
2018-05-04T03:34:35.854Z,5.20
2018-05-04T03:37:05.482Z,5.00
2018-05-04T03:39:34.988Z,5.30
2018-05-04T03:42:04.790Z,4.83
2018-05-04T03:44:34.558Z,5.23
2018-05-04T03:47:05.132Z,4.80
2018-05-04T03:49:35.277Z,4.90
2018-05-04T03:52:05.488Z,4.27
2018-05-04T03:54:37.115Z,4.10
2018-05-04T03:57:17.631Z,4.90
2018-05-04T03:59:58.426Z,4.90
2018-05-04T04:02:39.394Z,4.20
2018-05-04T04:05:08.692Z,4.47
2018-05-04T04:07:39.063Z,4.53
2018-05-04T04:10:10.191Z,5.07
2018-05-04T04:12:40.120Z,4.17
2018-05-04T04:15:09.740Z,4.60
2018-05-04T04:17:40.503Z,4.53
2018-05-04T04:20:09.996Z,4.07
2018-05-04T04:22:41.588Z,4.90
2018-05-04T04:25:11.454Z,5.13
2018-05-04T04:27:41.083Z,4.73
2018-05-04T04:30:10.473Z,5.73
2018-05-04T04:32:40.149Z,4.60
2018-05-04T04:35:09.434Z,5.40
2018-05-04T04:37:39.100Z,4.23
2018-05-04T04:40:08.480Z,4.30
2018-05-04T04:42:38.038Z,5.00
2018-05-04T04:45:07.729Z,4.63
2018-05-04T04:47:37.196Z,4.77
2018-05-04T04:50:06.359Z,4.63
2018-05-04T04:52:35.689Z,4.87
2018-05-04T04:55:04.913Z,5.80
2018-05-04T04:57:34.264Z,4.63
2018-05-04T05:00:04.436Z,4.83
2018-05-04T05:02:33.719Z,4.73
2018-05-04T05:05:03.039Z,4.77
2018-05-04T05:07:32.321Z,5.30
2018-05-04T05:10:01.545Z,4.83
2018-05-04T05:12:30.844Z,4.40
2018-05-04T05:14:59.944Z,5.70
2018-05-04T05:17:29.208Z,5.47
2018-05-04T05:19:58.604Z,4.87
2018-05-04T05:22:27.957Z,4.70
2018-05-04T05:24:57.813Z,4.93
2018-05-04T05:27:27.181Z,4.83
2018-05-04T05:29:56.436Z,5.07
2018-05-04T05:32:25.746Z,7.37
2018-05-04T05:34:54.850Z,10.07
2018-05-04T05:37:24.037Z,4.87
2018-05-04T05:39:53.211Z,4.27
2018-05-04T05:42:23.078Z,8.90
2018-05-04T05:44:52.354Z,6.13
2018-05-04T05:47:21.652Z,10.40
2018-05-04T05:49:50.959Z,5.90
2018-05-04T05:52:20.438Z,5.50
2018-05-04T05:54:50.427Z,5.73
2018-05-04T05:57:19.949Z,4.60
2018-05-04T05:59:49.263Z,5.50
2018-05-04T06:02:18.376Z,5.60
2018-05-04T06:04:47.650Z,6.50
2018-05-04T06:07:16.986Z,4.97
2018-05-04T06:09:46.228Z,4.90
2018-05-04T06:12:15.799Z,5.00
2018-05-04T06:14:46.017Z,5.30
2018-05-04T06:17:15.333Z,5.50
2018-05-04T06:19:45.164Z,5.67
2018-05-04T06:22:14.331Z,5.93
2018-05-04T06:24:44.304Z,5.83
2018-05-04T06:27:13.570Z,4.97
2018-05-04T06:29:42.917Z,5.63
2018-05-04T06:32:12.214Z,5.00
2018-05-04T06:34:41.672Z,5.90
2018-05-04T06:37:11.017Z,5.80
2018-05-04T06:39:40.346Z,7.27
2018-05-04T06:42:09.565Z,6.07
2018-05-04T06:44:38.929Z,5.27
2018-05-04T06:47:08.210Z,5.30
2018-05-04T06:49:37.765Z,5.37
2018-05-04T06:52:07.109Z,5.90
2018-05-04T06:54:36.199Z,5.17
2018-05-04T06:57:05.943Z,5.33
2018-05-04T06:59:35.022Z,5.10
2018-05-04T07:02:04.392Z,4.90
2018-05-04T07:04:33.898Z,5.33
2018-05-04T07:07:03.096Z,6.03
2018-05-04T07:09:32.120Z,5.20
2018-05-04T07:12:01.586Z,5.30
2018-05-04T07:14:31.377Z,4.80
2018-05-04T07:17:00.615Z,4.60
2018-05-04T07:19:29.928Z,5.10
2018-05-04T07:21:59.440Z,5.30
2018-05-04T07:24:28.488Z,4.97
2018-05-04T07:26:58.355Z,4.97
2018-05-04T07:29:27.586Z,3.87
2018-05-04T07:31:56.786Z,3.80
2018-05-04T07:34:26.030Z,3.10
2018-05-04T07:36:55.336Z,3.20
2018-05-04T07:39:24.625Z,3.10
2018-05-04T07:41:53.899Z,3.57
2018-05-04T07:44:23.188Z,2.83
2018-05-04T07:46:52.193Z,3.03
2018-05-04T07:49:21.700Z,3.17
2018-05-04T07:51:51.108Z,2.50
2018-05-04T07:54:20.441Z,2.50
2018-05-04T07:56:49.798Z,3.10
2018-05-04T07:59:19.095Z,3.63
2018-05-04T08:01:48.423Z,3.07
2018-05-04T08:04:17.564Z,3.27
2018-05-04T08:06:47.024Z,3.30
2018-05-04T08:09:16.108Z,3.00
2018-05-04T08:11:45.425Z,3.20
2018-05-04T08:14:14.951Z,3.07
2018-05-04T08:16:44.219Z,2.80
2018-05-04T08:19:13.685Z,3.63
2018-05-04T08:21:43.218Z,2.53
2018-05-04T08:24:12.897Z,3.40
2018-05-04T08:26:42.344Z,3.00
2018-05-04T08:29:12.231Z,2.37
2018-05-04T08:31:41.598Z,3.10
2018-05-04T08:34:10.631Z,3.07
2018-05-04T08:36:40.144Z,3.13
2018-05-04T08:39:09.416Z,3.90
2018-05-04T08:41:39.018Z,3.30
2018-05-04T08:44:08.655Z,3.30
2018-05-04T08:46:37.756Z,3.40
2018-05-04T08:49:06.993Z,3.03
2018-05-04T08:51:36.362Z,3.07
2018-05-04T08:54:06.288Z,3.63
2018-05-04T08:56:35.546Z,2.73
2018-05-04T08:59:04.875Z,2.67
2018-05-04T09:01:34.275Z,2.57
2018-05-04T09:04:03.482Z,2.50
2018-05-04T09:06:32.779Z,2.37
2018-05-04T09:09:02.296Z,2.50
2018-05-04T09:11:31.537Z,3.00
2018-05-04T09:14:00.903Z,2.60
2018-05-04T09:16:30.204Z,2.40
2018-05-04T09:19:00.148Z,2.40
2018-05-04T09:21:29.680Z,2.37
2018-05-04T09:23:58.978Z,2.70
2018-05-04T09:26:28.453Z,2.50
2018-05-04T09:28:58.043Z,3.20
2018-05-04T09:31:27.250Z,2.87
2018-05-04T09:33:56.792Z,2.30
2018-05-04T09:36:26.464Z,2.93
2018-05-04T09:38:56.377Z,2.60
2018-05-04T09:41:25.890Z,2.33
2018-05-04T09:43:55.196Z,2.90
2018-05-04T09:46:24.879Z,2.90
2018-05-04T09:48:54.917Z,3.10
2018-05-04T09:51:24.368Z,3.17
2018-05-04T09:53:53.618Z,2.60
2018-05-04T09:56:23.394Z,2.80
2018-05-04T09:58:52.440Z,2.90
2018-05-04T10:01:21.980Z,2.70
2018-05-04T10:03:51.923Z,2.93
2018-05-04T10:06:21.051Z,2.93
2018-05-04T10:08:50.539Z,2.90
2018-05-04T10:11:20.040Z,3.00
2018-05-04T10:13:49.482Z,2.47
2018-05-04T10:16:18.771Z,2.07
2018-05-04T10:18:48.074Z,2.67
2018-05-04T10:21:17.491Z,3.13
2018-05-04T10:23:46.887Z,2.80
2018-05-04T10:26:16.767Z,2.60
2018-05-04T10:28:46.074Z,2.70
2018-05-04T10:31:15.803Z,3.00
2018-05-04T10:33:46.543Z,3.10
2018-05-04T10:36:16.104Z,2.60
2018-05-04T10:38:45.560Z,2.60
2018-05-04T10:41:14.828Z,2.80
2018-05-04T10:43:43.957Z,3.10
2018-05-04T10:46:13.701Z,3.30
2018-05-04T10:48:42.950Z,3.40
2018-05-04T10:51:12.431Z,3.17
2018-05-04T10:53:41.732Z,3.00
2018-05-04T10:56:11.282Z,2.70
2018-05-04T10:58:41.616Z,3.43
2018-05-04T11:01:11.576Z,3.00
2018-05-04T11:03:40.832Z,2.60
2018-05-04T11:06:10.757Z,3.63
2018-05-04T11:08:40.113Z,2.73
2018-05-04T11:11:09.637Z,3.20
2018-05-04T11:13:39.139Z,3.20
2018-05-04T11:16:08.802Z,3.23
2018-05-04T11:18:38.327Z,3.10
2018-05-04T11:21:07.433Z,2.90
2018-05-04T11:23:36.548Z,3.07
2018-05-04T11:26:05.602Z,2.87
2018-05-04T11:28:35.165Z,3.30
2018-05-04T11:31:04.522Z,3.07
2018-05-04T11:33:34.214Z,3.10
2018-05-04T11:36:03.489Z,3.20
2018-05-04T11:38:32.784Z,3.30
2018-05-04T11:41:02.328Z,2.97
2018-05-04T11:43:31.787Z,3.47
2018-05-04T11:46:01.144Z,3.60
2018-05-04T11:48:30.402Z,3.53
2018-05-04T11:50:59.669Z,3.50
2018-05-04T11:53:28.909Z,3.00
2018-05-04T11:55:58.183Z,3.17
2018-05-04T11:58:27.312Z,3.40
2018-05-04T12:00:57.068Z,3.67
2018-05-04T12:03:26.416Z,3.47
2018-05-04T12:05:55.717Z,4.07
2018-05-04T12:08:25.095Z,3.00
2018-05-04T12:10:54.302Z,3.57
2018-05-04T12:13:23.833Z,3.90
2018-05-04T12:15:52.929Z,3.07
2018-05-04T12:18:21.993Z,3.50
2018-05-04T12:20:51.096Z,3.83
2018-05-04T12:23:20.228Z,2.80
2018-05-04T12:25:49.471Z,3.40
2018-05-04T12:28:19.196Z,3.43
2018-05-04T12:30:48.498Z,3.90
2018-05-04T12:33:17.928Z,3.30
2018-05-04T12:35:47.596Z,3.33
2018-05-04T12:38:16.938Z,4.20
2018-05-04T12:40:46.419Z,3.40
2018-05-04T12:43:15.685Z,3.40
2018-05-04T12:45:45.480Z,3.73
2018-05-04T12:48:15.152Z,4.50
2018-05-04T12:50:44.032Z,3.50
2018-05-04T12:53:13.458Z,3.83
2018-05-04T12:55:43.635Z,4.20
2018-05-04T12:58:12.939Z,3.80
2018-05-04T13:00:42.424Z,3.57
2018-05-04T13:03:12.182Z,3.90
2018-05-04T13:05:41.441Z,4.20
2018-05-04T13:08:10.913Z,3.90
2018-05-04T13:10:39.985Z,3.50
2018-05-04T13:13:09.237Z,3.90
2018-05-04T13:15:38.821Z,4.27
2018-05-04T13:18:08.157Z,3.93
2018-05-04T13:20:37.653Z,3.53
2018-05-04T13:23:06.974Z,5.00
2018-05-04T13:25:36.464Z,3.73
2018-05-04T13:28:05.749Z,4.00
2018-05-04T13:30:35.079Z,4.00
2018-05-04T13:33:04.365Z,3.70
2018-05-04T13:35:33.672Z,4.37
2018-05-04T13:38:03.001Z,3.70
2018-05-04T13:40:32.291Z,4.10
2018-05-04T13:43:01.870Z,4.47
2018-05-04T13:45:31.199Z,3.83
2018-05-04T13:48:00.261Z,4.40
2018-05-04T13:50:29.569Z,3.83
2018-05-04T13:52:58.595Z,4.20
2018-05-04T13:55:27.834Z,3.60
2018-05-04T13:57:56.929Z,4.20
2018-05-04T14:00:26.382Z,4.37
2018-05-04T14:02:56.413Z,3.00
2018-05-04T14:05:27.549Z,3.57
2018-05-04T14:07:57.560Z,3.40
2018-05-04T14:10:27.623Z,3.60
2018-05-04T14:12:57.180Z,3.60
2018-05-04T14:15:26.884Z,4.00
2018-05-04T14:17:56.340Z,4.50
2018-05-04T14:20:25.639Z,3.70
2018-05-04T14:22:54.969Z,4.23
2018-05-04T14:25:24.086Z,4.70
2018-05-04T14:27:53.784Z,4.13
2018-05-04T14:30:23.500Z,4.30
2018-05-04T14:32:52.798Z,4.10
2018-05-04T14:35:22.111Z,3.53
2018-05-04T14:37:52.397Z,4.37
2018-05-04T14:40:21.918Z,3.60
2018-05-04T14:42:51.557Z,3.70
2018-05-04T14:45:20.800Z,4.10
2018-05-04T14:47:50.330Z,3.67
2018-05-04T14:50:19.404Z,4.47
2018-05-04T14:52:48.905Z,4.13
2018-05-04T14:55:18.215Z,3.60
2018-05-04T14:57:47.506Z,3.83
2018-05-04T15:00:16.799Z,4.07
2018-05-04T15:02:46.203Z,3.50
2018-05-04T15:05:15.455Z,3.10
2018-05-04T15:07:45.070Z,3.10
2018-05-04T15:10:14.441Z,3.17
2018-05-04T15:12:44.970Z,3.30
2018-05-04T15:15:15.064Z,3.63
2018-05-04T15:17:44.800Z,3.60
2018-05-04T15:20:14.270Z,3.50
2018-05-04T15:22:43.780Z,3.30
2018-05-04T15:25:13.044Z,3.63
2018-05-04T15:27:42.391Z,3.43
2018-05-04T15:30:11.852Z,2.90
2018-05-04T15:32:41.594Z,3.10
2018-05-04T15:35:10.854Z,2.90
2018-05-04T15:37:39.893Z,3.40
2018-05-04T15:40:09.770Z,3.07
2018-05-04T15:42:38.921Z,3.77
2018-05-04T15:45:08.472Z,3.43
2018-05-04T15:47:37.801Z,3.77
2018-05-04T15:50:12.558Z,3.40
2018-05-04T15:52:42.508Z,3.30
2018-05-04T15:55:12.000Z,3.50
2018-05-04T15:57:41.313Z,3.60
2018-05-04T16:00:10.667Z,3.27
2018-05-04T16:02:41.185Z,3.60
2018-05-04T16:05:10.468Z,3.57
2018-05-04T16:07:39.981Z,3.10
2018-05-04T16:10:09.482Z,3.37
2018-05-04T16:12:38.914Z,4.27
2018-05-04T16:15:08.161Z,7.03
2018-05-04T16:17:37.259Z,3.40
2018-05-04T16:20:06.411Z,3.40
2018-05-04T16:22:35.668Z,3.20
2018-05-04T16:25:04.970Z,6.60
2018-05-04T16:27:34.084Z,4.13
2018-05-04T16:30:03.120Z,3.07
2018-05-04T16:32:32.248Z,3.07
2018-05-04T16:35:01.580Z,2.77
2018-05-04T16:37:31.058Z,3.10
2018-05-04T16:40:00.369Z,3.43
2018-05-04T16:42:30.070Z,3.07
2018-05-04T16:44:59.345Z,3.03
2018-05-04T16:47:28.818Z,2.80
2018-05-04T16:49:57.924Z,3.40
2018-05-04T16:52:27.376Z,2.80
2018-05-04T16:54:56.664Z,3.27
2018-05-04T16:57:26.089Z,2.97
2018-05-04T16:59:55.330Z,3.47
2018-05-04T17:02:24.771Z,3.10
2018-05-04T17:04:54.214Z,3.10
2018-05-04T17:07:23.501Z,3.30
2018-05-04T17:09:52.889Z,3.40
2018-05-04T17:12:22.257Z,2.93
2018-05-04T17:14:51.944Z,2.80
2018-05-04T17:17:21.269Z,2.40
2018-05-04T17:19:50.392Z,3.10
2018-05-04T17:22:21.458Z,3.00
2018-05-04T17:24:50.504Z,2.40
2018-05-04T17:27:21.433Z,3.17
2018-05-04T17:29:50.835Z,2.67
2018-05-04T17:32:20.424Z,2.93
2018-05-04T17:34:49.546Z,3.13
2018-05-04T17:37:19.262Z,3.00
2018-05-04T17:39:48.556Z,3.03
2018-05-04T17:42:17.707Z,3.37
2018-05-04T17:44:46.960Z,3.10
2018-05-04T17:47:16.252Z,3.50
2018-05-04T17:49:45.564Z,3.00
2018-05-04T17:52:14.994Z,3.40
2018-05-04T17:54:44.942Z,2.90
2018-05-04T17:57:14.145Z,3.93
2018-05-04T17:59:43.145Z,3.23
2018-05-04T18:02:12.397Z,4.20
2018-05-04T18:04:41.647Z,3.87
2018-05-04T18:07:10.932Z,3.87
2018-05-04T18:09:40.274Z,3.90
2018-05-04T18:12:09.775Z,3.67
2018-05-04T18:14:39.042Z,3.70
2018-05-04T18:17:08.335Z,3.53
2018-05-04T18:19:37.863Z,3.70
2018-05-04T18:22:07.139Z,3.80
2018-05-04T18:24:36.678Z,4.23
2018-05-04T18:27:05.958Z,4.00
2018-05-04T18:29:35.056Z,3.70
2018-05-04T18:32:04.555Z,4.70
2018-05-04T18:34:33.863Z,3.50
2018-05-04T18:37:02.916Z,3.60
2018-05-04T18:39:32.165Z,4.23
2018-05-04T18:42:01.406Z,4.13
2018-05-04T18:44:31.139Z,4.10
2018-05-04T18:47:00.404Z,4.10
2018-05-04T18:49:29.637Z,3.87
2018-05-04T18:51:58.945Z,4.60
2018-05-04T18:54:28.293Z,4.47
2018-05-04T18:56:57.517Z,4.00
2018-05-04T18:59:26.640Z,5.07
2018-05-04T19:01:55.712Z,4.93
2018-05-04T19:04:25.045Z,4.63
2018-05-04T19:06:54.566Z,4.50
2018-05-04T19:09:24.855Z,4.70
2018-05-04T19:11:54.183Z,5.10
2018-05-04T19:14:23.599Z,5.10
2018-05-04T19:16:52.943Z,5.10
2018-05-04T19:19:22.272Z,5.07
2018-05-04T19:21:51.562Z,5.80
2018-05-04T19:24:20.850Z,5.63
2018-05-04T19:26:50.193Z,4.83
2018-05-04T19:29:19.457Z,5.80
2018-05-04T19:31:48.762Z,7.03
2018-05-04T19:34:18.060Z,5.50
2018-05-04T19:36:47.544Z,5.60
2018-05-04T19:39:17.418Z,5.93
2018-05-04T19:41:47.545Z,5.10
2018-05-04T19:44:17.491Z,4.30
2018-05-04T19:46:47.237Z,5.33
2018-05-04T19:49:16.939Z,5.43
2018-05-04T19:51:46.225Z,6.03
2018-05-04T19:54:15.742Z,5.67
2018-05-04T19:56:45.032Z,5.60
2018-05-04T19:59:14.022Z,6.47
2018-05-04T20:01:43.319Z,7.20
2018-05-04T20:04:12.685Z,6.10
2018-05-04T20:06:42.119Z,5.67
2018-05-04T20:09:11.545Z,6.00
2018-05-04T20:11:40.866Z,6.20
2018-05-04T20:14:09.934Z,5.90
2018-05-04T20:16:39.253Z,6.20
2018-05-04T20:19:08.437Z,6.30
2018-05-04T20:21:37.413Z,6.80
2018-05-04T20:24:06.725Z,6.57
2018-05-04T20:26:36.024Z,7.13
2018-05-04T20:29:05.310Z,7.10
2018-05-04T20:31:34.620Z,7.53
2018-05-04T20:34:03.893Z,7.50
2018-05-04T20:36:33.197Z,7.60
2018-05-04T20:39:02.521Z,7.10
2018-05-04T20:41:32.218Z,7.47
2018-05-04T20:44:01.504Z,6.90
2018-05-04T20:46:30.685Z,6.57
2018-05-04T20:49:00.214Z,7.30
2018-05-04T20:51:29.304Z,7.47
2018-05-04T20:53:58.788Z,6.27
2018-05-04T20:56:28.102Z,7.30
2018-05-04T20:58:57.396Z,6.87
2018-05-04T21:01:26.696Z,6.30
2018-05-04T21:03:56.234Z,6.13
2018-05-04T21:06:25.515Z,8.43
2018-05-04T21:08:55.242Z,7.07
2018-05-04T21:11:25.522Z,8.00
2018-05-04T21:13:54.777Z,6.97
2018-05-04T21:16:24.022Z,7.90
2018-05-04T21:18:53.621Z,7.30
2018-05-04T21:21:22.905Z,7.27
2018-05-04T21:23:52.240Z,7.60
2018-05-04T21:26:21.333Z,8.77
2018-05-04T21:28:50.799Z,8.63
2018-05-04T21:31:20.729Z,7.53
2018-05-04T21:33:50.052Z,9.07
2018-05-04T21:36:19.128Z,7.30
2018-05-04T21:38:48.218Z,8.10
2018-05-04T21:41:17.351Z,7.77
2018-05-04T21:43:46.721Z,7.67
2018-05-04T21:46:15.825Z,7.73
2018-05-04T21:48:45.017Z,7.47
2018-05-04T21:51:14.496Z,8.03
2018-05-04T21:53:44.062Z,7.10
2018-05-04T21:56:14.745Z,8.10
2018-05-04T21:58:43.842Z,8.03
2018-05-04T22:01:12.939Z,7.73
2018-05-04T22:03:42.487Z,8.10
2018-05-04T22:06:11.555Z,7.20
2018-05-04T22:08:40.771Z,7.10
2018-05-04T22:11:10.042Z,8.23
2018-05-04T22:13:39.358Z,7.60
2018-05-04T22:16:08.437Z,8.33
2018-05-04T22:18:37.743Z,7.10
2018-05-04T22:21:07.653Z,7.63
2018-05-04T22:23:36.969Z,7.50
2018-05-04T22:26:06.244Z,6.93
2018-05-04T22:28:35.543Z,7.47
2018-05-04T22:31:04.883Z,7.93
2018-05-04T22:33:34.163Z,7.27
2018-05-04T22:36:03.451Z,7.17
2018-05-04T22:38:32.777Z,8.00
2018-05-04T22:41:02.511Z,7.73
2018-05-04T22:43:31.802Z,7.60
2018-05-04T22:46:01.292Z,8.50
2018-05-04T22:48:31.013Z,8.63
2018-05-04T22:51:00.726Z,8.17
2018-05-04T22:53:30.920Z,7.47
2018-05-04T22:56:00.265Z,7.67
2018-05-04T22:58:29.519Z,9.60
2018-05-04T23:00:58.782Z,9.30
2018-05-04T23:03:28.170Z,9.10
2018-05-04T23:05:57.403Z,8.37
2018-05-04T23:08:26.708Z,8.93
2018-05-04T23:10:56.235Z,7.60
2018-05-04T23:13:25.844Z,8.60
2018-05-04T23:15:54.886Z,8.00
2018-05-04T23:18:24.209Z,7.20
2018-05-04T23:20:53.489Z,7.27
2018-05-04T23:23:23.202Z,7.60
2018-05-04T23:25:52.601Z,8.20
2018-05-04T23:28:21.920Z,8.30
2018-05-04T23:30:50.834Z,8.13
2018-05-04T23:33:20.108Z,8.30
2018-05-04T23:35:49.404Z,7.70
2018-05-04T23:38:19.043Z,8.00
2018-05-04T23:40:48.307Z,7.40
2018-05-04T23:43:17.611Z,8.63
2018-05-04T23:45:47.101Z,7.77
2018-05-04T23:48:16.565Z,6.77
2018-05-04T23:50:45.806Z,7.13
2018-05-04T23:53:16.121Z,8.00
2018-05-04T23:55:45.271Z,9.03
2018-05-04T23:58:14.712Z,8.40
